sensor_id;sensor_type;location;lat;lon;timestamp;temperature;humidity
2487;DHT22;1254;49.144;8.212;2022-08-18T00:01:28;20.30;99.90
2487;DHT22;1254;49.144;8.212;2022-08-18T00:03:54;20.30;99.90
2487;DHT22;1254;49.144;8.212;2022-08-18T00:06:21;20.20;99.90
2487;DHT22;1254;49.144;8.212;2022-08-18T00:08:50;20.20;99.90
2487;DHT22;1254;49.144;8.212;2022-08-18T00:11:16;20.10;99.90
2487;DHT22;1254;49.144;8.212;2022-08-18T00:13:43;20.10;99.90
2487;DHT22;1254;49.144;8.212;2022-08-18T00:16:09;20.00;99.90
2487;DHT22;1254;49.144;8.212;2022-08-18T00:18:36;20.00;99.90
2487;DHT22;1254;49.144;8.212;2022-08-18T00:21:02;20.00;99.90
2487;DHT22;1254;49.144;8.212;2022-08-18T00:23:29;19.90;99.90
2487;DHT22;1254;49.144;8.212;2022-08-18T00:25:57;19.90;99.90
2487;DHT22;1254;49.144;8.212;2022-08-18T00:28:25;19.90;99.90
2487;DHT22;1254;49.144;8.212;2022-08-18T00:30:51;19.80;99.90
2487;DHT22;1254;49.144;8.212;2022-08-18T00:33:18;19.70;99.90
2487;DHT22;1254;49.144;8.212;2022-08-18T00:35:44;19.60;99.90
2487;DHT22;1254;49.144;8.212;2022-08-18T00:38:10;19.60;99.90
2487;DHT22;1254;49.144;8.212;2022-08-18T00:40:41;19.50;99.90
2487;DHT22;1254;49.144;8.212;2022-08-18T00:43:12;19.40;99.90
2487;DHT22;1254;49.144;8.212;2022-08-18T00:45:41;19.40;99.90
2487;DHT22;1254;49.144;8.212;2022-08-18T00:48:11;19.30;99.90
2487;DHT22;1254;49.144;8.212;2022-08-18T00:50:58;19.30;99.90
2487;DHT22;1254;49.144;8.212;2022-08-18T00:56:08;19.20;99.90
2487;DHT22;1254;49.144;8.212;2022-08-18T00:58:42;19.20;99.90
2487;DHT22;1254;49.144;8.212;2022-08-18T01:01:11;19.20;99.90
2487;DHT22;1254;49.144;8.212;2022-08-18T01:03:39;19.20;99.90
2487;DHT22;1254;49.144;8.212;2022-08-18T01:06:31;19.30;99.90
2487;DHT22;1254;49.144;8.212;2022-08-18T01:08:59;19.20;99.90
2487;DHT22;1254;49.144;8.212;2022-08-18T01:11:28;19.30;99.90
2487;DHT22;1254;49.144;8.212;2022-08-18T01:13:54;19.20;99.90
2487;DHT22;1254;49.144;8.212;2022-08-18T01:16:21;19.30;99.90
2487;DHT22;1254;49.144;8.212;2022-08-18T01:19:06;19.20;99.90
2487;DHT22;1254;49.144;8.212;2022-08-18T01:21:58;19.20;99.90
2487;DHT22;1254;49.144;8.212;2022-08-18T01:24:30;19.30;99.90
2487;DHT22;1254;49.144;8.212;2022-08-18T01:27:17;19.30;99.90
2487;DHT22;1254;49.144;8.212;2022-08-18T01:29:48;19.30;99.90
2487;DHT22;1254;49.144;8.212;2022-08-18T01:32:19;19.20;99.90
2487;DHT22;1254;49.144;8.212;2022-08-18T01:34:47;19.20;99.90
2487;DHT22;1254;49.144;8.212;2022-08-18T01:37:20;19.30;99.90
2487;DHT22;1254;49.144;8.212;2022-08-18T01:39:47;19.20;99.90
2487;DHT22;1254;49.144;8.212;2022-08-18T01:42:15;19.20;99.90
2487;DHT22;1254;49.144;8.212;2022-08-18T01:44:46;19.20;99.90
2487;DHT22;1254;49.144;8.212;2022-08-18T01:47:13;19.20;99.90
2487;DHT22;1254;49.144;8.212;2022-08-18T01:49:40;19.10;99.90
2487;DHT22;1254;49.144;8.212;2022-08-18T01:52:14;19.10;99.90
2487;DHT22;1254;49.144;8.212;2022-08-18T01:54:46;19.00;99.90
2487;DHT22;1254;49.144;8.212;2022-08-18T01:57:14;19.00;99.90
2487;DHT22;1254;49.144;8.212;2022-08-18T01:59:41;19.00;99.90
2487;DHT22;1254;49.144;8.212;2022-08-18T02:02:09;18.90;99.90
2487;DHT22;1254;49.144;8.212;2022-08-18T02:04:37;18.80;99.90
2487;DHT22;1254;49.144;8.212;2022-08-18T02:07:08;18.70;99.90
2487;DHT22;1254;49.144;8.212;2022-08-18T02:09:36;18.80;99.90
2487;DHT22;1254;49.144;8.212;2022-08-18T02:12:05;18.80;99.90
2487;DHT22;1254;49.144;8.212;2022-08-18T02:14:33;18.70;99.90
2487;DHT22;1254;49.144;8.212;2022-08-18T02:17:01;18.60;99.90
2487;DHT22;1254;49.144;8.212;2022-08-18T02:19:39;18.60;99.90
2487;DHT22;1254;49.144;8.212;2022-08-18T02:22:07;18.50;99.90
2487;DHT22;1254;49.144;8.212;2022-08-18T02:24:35;18.50;99.90
2487;DHT22;1254;49.144;8.212;2022-08-18T02:27:02;18.40;99.90
2487;DHT22;1254;49.144;8.212;2022-08-18T02:29:28;18.30;99.90
2487;DHT22;1254;49.144;8.212;2022-08-18T02:31:55;18.40;99.90
2487;DHT22;1254;49.144;8.212;2022-08-18T02:34:22;18.40;99.90
2487;DHT22;1254;49.144;8.212;2022-08-18T02:36:48;18.40;99.90
2487;DHT22;1254;49.144;8.212;2022-08-18T02:39:15;18.40;99.90
2487;DHT22;1254;49.144;8.212;2022-08-18T02:41:41;18.40;99.90
2487;DHT22;1254;49.144;8.212;2022-08-18T02:44:08;18.50;99.90
2487;DHT22;1254;49.144;8.212;2022-08-18T02:46:36;18.40;99.90
2487;DHT22;1254;49.144;8.212;2022-08-18T02:49:03;18.40;99.90
2487;DHT22;1254;49.144;8.212;2022-08-18T02:51:31;18.50;99.90
2487;DHT22;1254;49.144;8.212;2022-08-18T02:53:57;18.40;99.90
2487;DHT22;1254;49.144;8.212;2022-08-18T02:56:26;18.40;99.90
2487;DHT22;1254;49.144;8.212;2022-08-18T02:59:03;18.40;99.90
2487;DHT22;1254;49.144;8.212;2022-08-18T03:01:33;18.40;99.90
2487;DHT22;1254;49.144;8.212;2022-08-18T03:04:00;18.50;99.90
2487;DHT22;1254;49.144;8.212;2022-08-18T03:06:28;18.50;99.90
2487;DHT22;1254;49.144;8.212;2022-08-18T03:08:55;18.50;99.90
2487;DHT22;1254;49.144;8.212;2022-08-18T03:11:24;18.50;99.90
2487;DHT22;1254;49.144;8.212;2022-08-18T03:13:52;18.50;99.90
2487;DHT22;1254;49.144;8.212;2022-08-18T03:16:19;18.50;99.90
2487;DHT22;1254;49.144;8.212;2022-08-18T03:18:47;18.50;99.90
2487;DHT22;1254;49.144;8.212;2022-08-18T03:21:18;18.50;99.90
2487;DHT22;1254;49.144;8.212;2022-08-18T03:23:47;18.50;99.90
2487;DHT22;1254;49.144;8.212;2022-08-18T03:26:15;18.50;99.90
2487;DHT22;1254;49.144;8.212;2022-08-18T03:28:45;18.50;99.90
2487;DHT22;1254;49.144;8.212;2022-08-18T03:31:13;18.50;99.90
2487;DHT22;1254;49.144;8.212;2022-08-18T03:33:41;18.50;99.90
2487;DHT22;1254;49.144;8.212;2022-08-18T03:36:12;18.50;99.90
2487;DHT22;1254;49.144;8.212;2022-08-18T03:38:40;18.50;99.90
2487;DHT22;1254;49.144;8.212;2022-08-18T03:41:10;18.50;99.90
2487;DHT22;1254;49.144;8.212;2022-08-18T03:43:37;18.50;99.90
2487;DHT22;1254;49.144;8.212;2022-08-18T03:46:07;18.40;99.90
2487;DHT22;1254;49.144;8.212;2022-08-18T03:48:36;18.60;99.90
2487;DHT22;1254;49.144;8.212;2022-08-18T03:51:21;18.50;99.90
2487;DHT22;1254;49.144;8.212;2022-08-18T03:53:48;18.40;99.90
2487;DHT22;1254;49.144;8.212;2022-08-18T03:56:19;18.40;99.90
2487;DHT22;1254;49.144;8.212;2022-08-18T03:58:51;18.50;99.90
2487;DHT22;1254;49.144;8.212;2022-08-18T04:01:20;18.50;99.90
2487;DHT22;1254;49.144;8.212;2022-08-18T04:03:50;18.50;99.90
2487;DHT22;1254;49.144;8.212;2022-08-18T04:06:23;18.40;99.90
2487;DHT22;1254;49.144;8.212;2022-08-18T04:08:51;18.40;99.90
2487;DHT22;1254;49.144;8.212;2022-08-18T04:11:19;18.40;99.90
2487;DHT22;1254;49.144;8.212;2022-08-18T04:13:46;18.30;99.90
2487;DHT22;1254;49.144;8.212;2022-08-18T04:16:13;18.30;99.90
2487;DHT22;1254;49.144;8.212;2022-08-18T04:18:39;18.30;99.90
2487;DHT22;1254;49.144;8.212;2022-08-18T04:21:08;18.30;99.90
2487;DHT22;1254;49.144;8.212;2022-08-18T04:23:39;18.30;99.90
2487;DHT22;1254;49.144;8.212;2022-08-18T04:26:06;18.30;99.90
2487;DHT22;1254;49.144;8.212;2022-08-18T04:28:34;18.30;99.90
2487;DHT22;1254;49.144;8.212;2022-08-18T04:31:09;18.40;99.90
2487;DHT22;1254;49.144;8.212;2022-08-18T04:33:36;18.30;99.90
2487;DHT22;1254;49.144;8.212;2022-08-18T04:36:11;18.30;99.90
2487;DHT22;1254;49.144;8.212;2022-08-18T04:38:38;18.30;99.90
2487;DHT22;1254;49.144;8.212;2022-08-18T04:41:08;18.30;99.90
2487;DHT22;1254;49.144;8.212;2022-08-18T04:43:35;18.30;99.90
2487;DHT22;1254;49.144;8.212;2022-08-18T04:46:01;18.40;99.90
2487;DHT22;1254;49.144;8.212;2022-08-18T04:48:30;18.30;99.90
2487;DHT22;1254;49.144;8.212;2022-08-18T04:51:03;18.40;99.90
2487;DHT22;1254;49.144;8.212;2022-08-18T04:53:31;18.40;99.90
2487;DHT22;1254;49.144;8.212;2022-08-18T04:56:24;18.40;99.90
2487;DHT22;1254;49.144;8.212;2022-08-18T04:58:57;18.50;99.90
2487;DHT22;1254;49.144;8.212;2022-08-18T05:01:29;18.40;99.90
2487;DHT22;1254;49.144;8.212;2022-08-18T05:03:58;18.30;99.90
2487;DHT22;1254;49.144;8.212;2022-08-18T05:06:26;18.40;99.90
2487;DHT22;1254;49.144;8.212;2022-08-18T05:08:56;18.30;99.90
2487;DHT22;1254;49.144;8.212;2022-08-18T05:11:24;18.30;99.90
2487;DHT22;1254;49.144;8.212;2022-08-18T05:13:51;18.30;99.90
2487;DHT22;1254;49.144;8.212;2022-08-18T05:16:18;18.30;99.90
2487;DHT22;1254;49.144;8.212;2022-08-18T05:18:44;18.40;99.90
2487;DHT22;1254;49.144;8.212;2022-08-18T05:21:11;18.40;99.90
2487;DHT22;1254;49.144;8.212;2022-08-18T05:23:42;18.40;99.90
2487;DHT22;1254;49.144;8.212;2022-08-18T05:26:11;18.40;99.90
2487;DHT22;1254;49.144;8.212;2022-08-18T05:28:40;18.50;99.90
2487;DHT22;1254;49.144;8.212;2022-08-18T05:31:09;18.50;99.90
2487;DHT22;1254;49.144;8.212;2022-08-18T05:33:37;18.50;99.90
2487;DHT22;1254;49.144;8.212;2022-08-18T05:42:02;18.50;99.90
2487;DHT22;1254;49.144;8.212;2022-08-18T05:44:30;18.50;99.90
2487;DHT22;1254;49.144;8.212;2022-08-18T05:47:07;18.50;99.90
2487;DHT22;1254;49.144;8.212;2022-08-18T05:49:37;18.50;99.90
2487;DHT22;1254;49.144;8.212;2022-08-18T05:52:11;18.40;99.90
2487;DHT22;1254;49.144;8.212;2022-08-18T05:54:48;18.50;99.90
2487;DHT22;1254;49.144;8.212;2022-08-18T05:57:41;18.40;99.90
2487;DHT22;1254;49.144;8.212;2022-08-18T06:00:09;18.50;99.90
2487;DHT22;1254;49.144;8.212;2022-08-18T06:02:43;18.50;99.90
2487;DHT22;1254;49.144;8.212;2022-08-18T06:05:20;18.50;99.90
2487;DHT22;1254;49.144;8.212;2022-08-18T06:07:55;18.60;99.90
2487;DHT22;1254;49.144;8.212;2022-08-18T06:10:22;18.60;99.90
2487;DHT22;1254;49.144;8.212;2022-08-18T06:12:52;18.70;99.90
2487;DHT22;1254;49.144;8.212;2022-08-18T06:40:34;19.30;99.90
2487;DHT22;1254;49.144;8.212;2022-08-18T06:43:01;19.40;99.90
2487;DHT22;1254;49.144;8.212;2022-08-18T06:45:35;19.30;99.90
2487;DHT22;1254;49.144;8.212;2022-08-18T06:48:11;19.30;99.90
2487;DHT22;1254;49.144;8.212;2022-08-18T06:50:58;19.30;99.90
2487;DHT22;1254;49.144;8.212;2022-08-18T06:56:51;19.20;99.90
2487;DHT22;1254;49.144;8.212;2022-08-18T06:59:31;19.40;99.90
2487;DHT22;1254;49.144;8.212;2022-08-18T07:02:18;19.40;99.90
2487;DHT22;1254;49.144;8.212;2022-08-18T07:07:39;19.60;99.90
2487;DHT22;1254;49.144;8.212;2022-08-18T07:12:41;19.70;99.90
2487;DHT22;1254;49.144;8.212;2022-08-18T07:15:11;19.70;99.90
2487;DHT22;1254;49.144;8.212;2022-08-18T07:17:38;19.80;99.90
2487;DHT22;1254;49.144;8.212;2022-08-18T07:20:21;19.70;99.90
2487;DHT22;1254;49.144;8.212;2022-08-18T07:23:00;19.60;99.90
2487;DHT22;1254;49.144;8.212;2022-08-18T07:25:40;19.70;99.90
2487;DHT22;1254;49.144;8.212;2022-08-18T07:28:28;19.70;99.90
2487;DHT22;1254;49.144;8.212;2022-08-18T07:33:42;19.60;99.90
2487;DHT22;1254;49.144;8.212;2022-08-18T07:36:12;19.60;99.90
2487;DHT22;1254;49.144;8.212;2022-08-18T07:39:03;19.70;99.90
2487;DHT22;1254;49.144;8.212;2022-08-18T07:41:36;19.80;99.90
2487;DHT22;1254;49.144;8.212;2022-08-18T07:44:27;19.80;99.90
2487;DHT22;1254;49.144;8.212;2022-08-18T07:47:00;19.70;99.90
2487;DHT22;1254;49.144;8.212;2022-08-18T07:49:32;19.70;99.90
2487;DHT22;1254;49.144;8.212;2022-08-18T07:52:13;19.70;99.90
2487;DHT22;1254;49.144;8.212;2022-08-18T07:55:06;19.70;99.90
2487;DHT22;1254;49.144;8.212;2022-08-18T08:06:22;19.80;99.90
2487;DHT22;1254;49.144;8.212;2022-08-18T08:11:54;19.80;99.90
2487;DHT22;1254;49.144;8.212;2022-08-18T08:14:41;19.80;99.90
2487;DHT22;1254;49.144;8.212;2022-08-18T08:20:25;19.70;99.90
2487;DHT22;1254;49.144;8.212;2022-08-18T08:33:41;19.60;99.90
2487;DHT22;1254;49.144;8.212;2022-08-18T08:38:46;19.50;99.90
2487;DHT22;1254;49.144;8.212;2022-08-18T08:41:39;19.60;99.90
2487;DHT22;1254;49.144;8.212;2022-08-18T08:44:33;19.70;99.90
2487;DHT22;1254;49.144;8.212;2022-08-18T08:47:12;19.80;99.90
2487;DHT22;1254;49.144;8.212;2022-08-18T08:52:22;19.80;99.90
2487;DHT22;1254;49.144;8.212;2022-08-18T08:57:49;20.20;99.90
2487;DHT22;1254;49.144;8.212;2022-08-18T09:00:17;20.30;99.90
2487;DHT22;1254;49.144;8.212;2022-08-18T09:03:16;20.30;99.90
2487;DHT22;1254;49.144;8.212;2022-08-18T09:06:20;20.20;99.90
2487;DHT22;1254;49.144;8.212;2022-08-18T09:11:50;20.20;99.90
2487;DHT22;1254;49.144;8.212;2022-08-18T09:14:25;20.40;99.90
2487;DHT22;1254;49.144;8.212;2022-08-18T09:17:21;20.70;99.90
2487;DHT22;1254;49.144;8.212;2022-08-18T09:23:12;21.80;99.90
2487;DHT22;1254;49.144;8.212;2022-08-18T09:38:45;22.10;99.90
2487;DHT22;1254;49.144;8.212;2022-08-18T09:41:36;22.60;99.90
2487;DHT22;1254;49.144;8.212;2022-08-18T09:44:12;22.90;99.90
2487;DHT22;1254;49.144;8.212;2022-08-18T09:57:35;22.10;99.90
2487;DHT22;1254;49.144;8.212;2022-08-18T10:13:39;22.40;99.90
2487;DHT22;1254;49.144;8.212;2022-08-18T10:19:05;22.20;99.90
2487;DHT22;1254;49.144;8.212;2022-08-18T10:24:22;22.00;99.90
2487;DHT22;1254;49.144;8.212;2022-08-18T10:34:47;22.00;99.90
2487;DHT22;1254;49.144;8.212;2022-08-18T10:42:37;22.20;99.90
2487;DHT22;1254;49.144;8.212;2022-08-18T10:45:33;22.40;99.90
2487;DHT22;1254;49.144;8.212;2022-08-18T10:48:32;22.40;99.90
2487;DHT22;1254;49.144;8.212;2022-08-18T10:56:40;23.10;99.90
2487;DHT22;1254;49.144;8.212;2022-08-18T10:59:29;23.10;99.90
2487;DHT22;1254;49.144;8.212;2022-08-18T11:02:45;23.30;99.90
2487;DHT22;1254;49.144;8.212;2022-08-18T11:05:22;23.30;99.90
2487;DHT22;1254;49.144;8.212;2022-08-18T11:07:56;23.40;99.90
2487;DHT22;1254;49.144;8.212;2022-08-18T11:10:39;23.40;99.90
2487;DHT22;1254;49.144;8.212;2022-08-18T11:13:17;23.50;99.90
2487;DHT22;1254;49.144;8.212;2022-08-18T11:24:15;24.20;99.90
2487;DHT22;1254;49.144;8.212;2022-08-18T11:26:48;24.30;99.90
2487;DHT22;1254;49.144;8.212;2022-08-18T11:29:32;24.40;99.90
2487;DHT22;1254;49.144;8.212;2022-08-18T11:32:03;24.50;99.90
2487;DHT22;1254;49.144;8.212;2022-08-18T11:34:36;24.20;99.90
2487;DHT22;1254;49.144;8.212;2022-08-18T11:37:07;24.20;99.90
2487;DHT22;1254;49.144;8.212;2022-08-18T11:39:42;24.60;99.90
2487;DHT22;1254;49.144;8.212;2022-08-18T11:42:14;24.80;99.90
2487;DHT22;1254;49.144;8.212;2022-08-18T11:44:41;25.20;99.90
2487;DHT22;1254;49.144;8.212;2022-08-18T11:47:20;25.30;99.90
2487;DHT22;1254;49.144;8.212;2022-08-18T11:52:23;25.00;99.90
2487;DHT22;1254;49.144;8.212;2022-08-18T11:54:50;24.70;99.90
2487;DHT22;1254;49.144;8.212;2022-08-18T11:57:54;24.70;99.90
2487;DHT22;1254;49.144;8.212;2022-08-18T12:03:16;24.40;99.90
2487;DHT22;1254;49.144;8.212;2022-08-18T12:05:57;24.60;99.90
2487;DHT22;1254;49.144;8.212;2022-08-18T12:08:32;24.70;99.90
2487;DHT22;1254;49.144;8.212;2022-08-18T12:14:07;25.60;99.90
2487;DHT22;1254;49.144;8.212;2022-08-18T12:16:41;25.90;99.90
2487;DHT22;1254;49.144;8.212;2022-08-18T12:19:11;25.40;99.90
2487;DHT22;1254;49.144;8.212;2022-08-18T12:21:47;25.20;99.90
2487;DHT22;1254;49.144;8.212;2022-08-18T12:24:29;25.60;99.90
2487;DHT22;1254;49.144;8.212;2022-08-18T12:26:57;26.30;99.90
2487;DHT22;1254;49.144;8.212;2022-08-18T12:29:25;27.30;99.90
2487;DHT22;1254;49.144;8.212;2022-08-18T12:31:54;27.60;99.90
2487;DHT22;1254;49.144;8.212;2022-08-18T12:34:23;27.60;99.90
2487;DHT22;1254;49.144;8.212;2022-08-18T12:36:52;27.70;99.90
2487;DHT22;1254;49.144;8.212;2022-08-18T12:39:19;27.00;99.90
2487;DHT22;1254;49.144;8.212;2022-08-18T12:41:46;27.00;99.90
2487;DHT22;1254;49.144;8.212;2022-08-18T12:44:13;26.90;99.90
2487;DHT22;1254;49.144;8.212;2022-08-18T12:46:41;27.10;99.90
2487;DHT22;1254;49.144;8.212;2022-08-18T12:49:22;27.70;99.90
2487;DHT22;1254;49.144;8.212;2022-08-18T12:51:50;28.50;99.90
2487;DHT22;1254;49.144;8.212;2022-08-18T12:54:17;28.70;99.90
2487;DHT22;1254;49.144;8.212;2022-08-18T12:56:46;29.00;99.90
2487;DHT22;1254;49.144;8.212;2022-08-18T12:59:13;29.60;99.90
2487;DHT22;1254;49.144;8.212;2022-08-18T13:01:40;29.90;99.90
2487;DHT22;1254;49.144;8.212;2022-08-18T13:04:07;30.00;99.90
2487;DHT22;1254;49.144;8.212;2022-08-18T13:06:48;29.10;99.90
2487;DHT22;1254;49.144;8.212;2022-08-18T13:09:15;28.60;99.90
2487;DHT22;1254;49.144;8.212;2022-08-18T13:11:41;28.70;99.90
2487;DHT22;1254;49.144;8.212;2022-08-18T13:14:11;29.30;99.90
2487;DHT22;1254;49.144;8.212;2022-08-18T13:16:39;30.30;99.90
2487;DHT22;1254;49.144;8.212;2022-08-18T13:19:07;29.30;99.90
2487;DHT22;1254;49.144;8.212;2022-08-18T13:21:34;29.90;99.90
2487;DHT22;1254;49.144;8.212;2022-08-18T13:24:01;29.40;99.90
2487;DHT22;1254;49.144;8.212;2022-08-18T13:26:36;29.50;99.90
2487;DHT22;1254;49.144;8.212;2022-08-18T13:29:04;29.00;99.90
2487;DHT22;1254;49.144;8.212;2022-08-18T13:31:31;28.40;99.90
2487;DHT22;1254;49.144;8.212;2022-08-18T13:33:59;28.50;99.90
2487;DHT22;1254;49.144;8.212;2022-08-18T13:36:27;27.80;99.90
2487;DHT22;1254;49.144;8.212;2022-08-18T13:39:18;27.40;99.90
2487;DHT22;1254;49.144;8.212;2022-08-18T13:41:45;27.30;99.90
2487;DHT22;1254;49.144;8.212;2022-08-18T13:44:13;27.00;99.90
2487;DHT22;1254;49.144;8.212;2022-08-18T13:46:43;27.40;99.90
2487;DHT22;1254;49.144;8.212;2022-08-18T13:49:17;27.90;99.90
2487;DHT22;1254;49.144;8.212;2022-08-18T13:51:45;28.90;99.90
2487;DHT22;1254;49.144;8.212;2022-08-18T13:54:21;29.40;99.90
2487;DHT22;1254;49.144;8.212;2022-08-18T13:56:48;29.80;99.90
2487;DHT22;1254;49.144;8.212;2022-08-18T13:59:16;30.60;99.90
2487;DHT22;1254;49.144;8.212;2022-08-18T14:01:42;31.30;99.90
2487;DHT22;1254;49.144;8.212;2022-08-18T14:04:11;31.10;99.90
2487;DHT22;1254;49.144;8.212;2022-08-18T14:06:38;31.10;99.90
2487;DHT22;1254;49.144;8.212;2022-08-18T14:09:05;31.50;99.90
2487;DHT22;1254;49.144;8.212;2022-08-18T14:11:33;31.00;99.90
2487;DHT22;1254;49.144;8.212;2022-08-18T14:14:00;30.80;99.90
2487;DHT22;1254;49.144;8.212;2022-08-18T14:16:27;30.00;99.90
2487;DHT22;1254;49.144;8.212;2022-08-18T14:18:53;30.40;99.90
2487;DHT22;1254;49.144;8.212;2022-08-18T14:21:47;29.30;99.90
2487;DHT22;1254;49.144;8.212;2022-08-18T14:24:34;29.20;99.90
2487;DHT22;1254;49.144;8.212;2022-08-18T14:27:24;29.90;99.90
2487;DHT22;1254;49.144;8.212;2022-08-18T14:29:51;29.90;99.90
2487;DHT22;1254;49.144;8.212;2022-08-18T14:32:20;29.90;99.90
2487;DHT22;1254;49.144;8.212;2022-08-18T14:34:47;30.10;99.90
2487;DHT22;1254;49.144;8.212;2022-08-18T14:37:14;29.70;99.90
2487;DHT22;1254;49.144;8.212;2022-08-18T14:39:41;29.20;99.90
2487;DHT22;1254;49.144;8.212;2022-08-18T14:42:07;29.30;99.90
2487;DHT22;1254;49.144;8.212;2022-08-18T14:44:34;29.50;99.90
2487;DHT22;1254;49.144;8.212;2022-08-18T14:47:00;29.80;99.90
2487;DHT22;1254;49.144;8.212;2022-08-18T14:49:26;29.70;99.90
2487;DHT22;1254;49.144;8.212;2022-08-18T14:51:59;29.40;99.90
2487;DHT22;1254;49.144;8.212;2022-08-18T14:54:27;29.80;99.90
2487;DHT22;1254;49.144;8.212;2022-08-18T14:56:54;29.40;99.90
2487;DHT22;1254;49.144;8.212;2022-08-18T14:59:20;29.50;99.90
2487;DHT22;1254;49.144;8.212;2022-08-18T15:01:48;30.30;99.90
2487;DHT22;1254;49.144;8.212;2022-08-18T15:04:14;30.20;99.90
2487;DHT22;1254;49.144;8.212;2022-08-18T15:06:43;30.10;99.90
2487;DHT22;1254;49.144;8.212;2022-08-18T15:09:09;29.80;99.90
2487;DHT22;1254;49.144;8.212;2022-08-18T15:11:36;30.00;99.90
2487;DHT22;1254;49.144;8.212;2022-08-18T15:14:02;29.70;99.90
2487;DHT22;1254;49.144;8.212;2022-08-18T15:16:29;29.70;99.90
2487;DHT22;1254;49.144;8.212;2022-08-18T15:18:59;29.60;99.90
2487;DHT22;1254;49.144;8.212;2022-08-18T15:21:27;29.70;99.90
2487;DHT22;1254;49.144;8.212;2022-08-18T15:24:13;29.50;99.90
2487;DHT22;1254;49.144;8.212;2022-08-18T15:26:58;28.60;99.90
2487;DHT22;1254;49.144;8.212;2022-08-18T15:29:25;28.50;99.90
2487;DHT22;1254;49.144;8.212;2022-08-18T15:31:52;28.10;99.90
2487;DHT22;1254;49.144;8.212;2022-08-18T15:34:18;28.50;99.90
2487;DHT22;1254;49.144;8.212;2022-08-18T15:36:45;28.50;99.90
2487;DHT22;1254;49.144;8.212;2022-08-18T15:39:12;28.30;99.90
2487;DHT22;1254;49.144;8.212;2022-08-18T15:41:44;27.90;99.90
2487;DHT22;1254;49.144;8.212;2022-08-18T15:44:16;27.70;99.90
2487;DHT22;1254;49.144;8.212;2022-08-18T15:46:43;27.70;99.90
2487;DHT22;1254;49.144;8.212;2022-08-18T15:49:10;27.70;99.90
2487;DHT22;1254;49.144;8.212;2022-08-18T15:51:38;27.70;99.90
2487;DHT22;1254;49.144;8.212;2022-08-18T15:54:07;27.70;99.90
2487;DHT22;1254;49.144;8.212;2022-08-18T15:56:34;27.70;99.90
2487;DHT22;1254;49.144;8.212;2022-08-18T15:59:03;27.80;99.90
2487;DHT22;1254;49.144;8.212;2022-08-18T16:01:34;27.80;99.90
2487;DHT22;1254;49.144;8.212;2022-08-18T16:04:05;27.60;99.90
2487;DHT22;1254;49.144;8.212;2022-08-18T16:06:33;27.20;99.90
2487;DHT22;1254;49.144;8.212;2022-08-18T16:09:01;27.20;99.90
2487;DHT22;1254;49.144;8.212;2022-08-18T16:11:28;27.10;99.90
2487;DHT22;1254;49.144;8.212;2022-08-18T16:13:55;27.10;99.90
2487;DHT22;1254;49.144;8.212;2022-08-18T16:16:23;27.20;99.90
2487;DHT22;1254;49.144;8.212;2022-08-18T16:18:50;27.40;99.90
2487;DHT22;1254;49.144;8.212;2022-08-18T16:21:21;27.20;99.90
2487;DHT22;1254;49.144;8.212;2022-08-18T16:23:50;27.00;99.90
2487;DHT22;1254;49.144;8.212;2022-08-18T16:26:18;26.90;99.90
2487;DHT22;1254;49.144;8.212;2022-08-18T16:28:48;27.10;99.90
2487;DHT22;1254;49.144;8.212;2022-08-18T16:31:19;27.20;99.90
2487;DHT22;1254;49.144;8.212;2022-08-18T16:33:51;27.20;99.90
2487;DHT22;1254;49.144;8.212;2022-08-18T16:36:19;27.30;99.90
2487;DHT22;1254;49.144;8.212;2022-08-18T16:38:47;27.00;99.90
2487;DHT22;1254;49.144;8.212;2022-08-18T16:41:14;27.00;99.90
2487;DHT22;1254;49.144;8.212;2022-08-18T16:43:43;27.00;99.90
2487;DHT22;1254;49.144;8.212;2022-08-18T16:46:13;27.20;99.90
2487;DHT22;1254;49.144;8.212;2022-08-18T16:48:40;27.30;99.90
2487;DHT22;1254;49.144;8.212;2022-08-18T16:51:10;27.20;99.90
2487;DHT22;1254;49.144;8.212;2022-08-18T16:53:51;27.10;99.90
2487;DHT22;1254;49.144;8.212;2022-08-18T16:56:22;27.20;99.90
2487;DHT22;1254;49.144;8.212;2022-08-18T16:58:48;26.90;99.90
2487;DHT22;1254;49.144;8.212;2022-08-18T17:01:34;26.90;99.90
2487;DHT22;1254;49.144;8.212;2022-08-18T17:04:22;26.60;99.90
2487;DHT22;1254;49.144;8.212;2022-08-18T17:06:49;26.60;99.90
2487;DHT22;1254;49.144;8.212;2022-08-18T17:09:17;26.40;99.90
2487;DHT22;1254;49.144;8.212;2022-08-18T17:11:44;26.50;99.90
2487;DHT22;1254;49.144;8.212;2022-08-18T17:14:10;26.50;99.90
2487;DHT22;1254;49.144;8.212;2022-08-18T17:16:37;26.50;99.90
2487;DHT22;1254;49.144;8.212;2022-08-18T17:19:05;26.40;99.90
2487;DHT22;1254;49.144;8.212;2022-08-18T17:21:32;26.30;99.90
2487;DHT22;1254;49.144;8.212;2022-08-18T17:24:00;26.30;99.90
2487;DHT22;1254;49.144;8.212;2022-08-18T17:26:43;26.20;99.90
2487;DHT22;1254;49.144;8.212;2022-08-18T17:29:21;26.20;99.90
2487;DHT22;1254;49.144;8.212;2022-08-18T17:31:55;26.10;99.90
2487;DHT22;1254;49.144;8.212;2022-08-18T17:34:29;26.00;99.90
2487;DHT22;1254;49.144;8.212;2022-08-18T17:37:00;25.90;99.90
2487;DHT22;1254;49.144;8.212;2022-08-18T17:39:39;25.90;99.90
2487;DHT22;1254;49.144;8.212;2022-08-18T17:42:07;25.80;99.90
2487;DHT22;1254;49.144;8.212;2022-08-18T17:45:08;25.70;99.90
2487;DHT22;1254;49.144;8.212;2022-08-18T17:53:17;25.60;99.90
2487;DHT22;1254;49.144;8.212;2022-08-18T17:56:00;25.60;99.90
2487;DHT22;1254;49.144;8.212;2022-08-18T17:58:52;25.50;99.90
2487;DHT22;1254;49.144;8.212;2022-08-18T18:01:22;25.40;99.90
2487;DHT22;1254;49.144;8.212;2022-08-18T18:03:49;25.30;99.90
2487;DHT22;1254;49.144;8.212;2022-08-18T18:09:05;25.30;99.90
2487;DHT22;1254;49.144;8.212;2022-08-18T18:11:43;25.30;99.90
2487;DHT22;1254;49.144;8.212;2022-08-18T18:17:29;25.20;99.90
2487;DHT22;1254;49.144;8.212;2022-08-18T18:22:41;25.10;99.90
2487;DHT22;1254;49.144;8.212;2022-08-18T18:25:12;25.00;99.90
2487;DHT22;1254;49.144;8.212;2022-08-18T18:27:42;25.00;99.90
2487;DHT22;1254;49.144;8.212;2022-08-18T18:32:48;24.90;99.90
2487;DHT22;1254;49.144;8.212;2022-08-18T18:35:21;24.80;99.90
2487;DHT22;1254;49.144;8.212;2022-08-18T18:37:55;24.80;99.90
2487;DHT22;1254;49.144;8.212;2022-08-18T18:43:16;24.70;99.90
2487;DHT22;1254;49.144;8.212;2022-08-18T18:46:05;24.70;99.90
2487;DHT22;1254;49.144;8.212;2022-08-18T18:51:22;24.60;99.90
2487;DHT22;1254;49.144;8.212;2022-08-18T18:54:17;24.50;99.90
2487;DHT22;1254;49.144;8.212;2022-08-18T18:56:50;24.40;99.90
2487;DHT22;1254;49.144;8.212;2022-08-18T19:02:36;24.20;99.90
2487;DHT22;1254;49.144;8.212;2022-08-18T19:08:05;23.90;99.90
2487;DHT22;1254;49.144;8.212;2022-08-18T19:13:10;23.70;99.90
2487;DHT22;1254;49.144;8.212;2022-08-18T19:15:38;23.50;99.90
2487;DHT22;1254;49.144;8.212;2022-08-18T19:20:46;23.40;99.90
2487;DHT22;1254;49.144;8.212;2022-08-18T19:23:33;23.30;99.90
2487;DHT22;1254;49.144;8.212;2022-08-18T19:26:06;23.30;99.90
2487;DHT22;1254;49.144;8.212;2022-08-18T19:31:13;23.30;99.90
2487;DHT22;1254;49.144;8.212;2022-08-18T19:36:17;23.30;99.90
2487;DHT22;1254;49.144;8.212;2022-08-18T19:38:57;23.30;99.90
2487;DHT22;1254;49.144;8.212;2022-08-18T19:47:25;23.10;99.90
2487;DHT22;1254;49.144;8.212;2022-08-18T20:01:16;22.90;99.90
2487;DHT22;1254;49.144;8.212;2022-08-18T20:04:02;22.90;99.90
2487;DHT22;1254;49.144;8.212;2022-08-18T20:09:25;22.80;99.90
2487;DHT22;1254;49.144;8.212;2022-08-18T20:14:40;22.70;99.90
2487;DHT22;1254;49.144;8.212;2022-08-18T20:19:44;22.70;99.90
2487;DHT22;1254;49.144;8.212;2022-08-18T20:25:07;22.70;99.90